Time;durP1;ratioP1;P1;durP2;ratioP2;P2;SDS_P1;SDS_P2;PMS_P1;PMS_P2;Temp;Humidity;BMP_temperature;BMP_pressure;BME280_temperature;BME280_humidity;BME280_pressure;Samples;Min_cycle;Max_cycle;Signal;HPM_P1;HPM_P2
2023/10/23 00:00:59;;;;;;;41.70;39.50;;;;;;;12.90;100.00;101044.59;5111436;28;20059;-77
2023/10/23 00:03:26;;;;;;;35.72;33.72;;;;;;;12.81;100.00;101044.03;5092633;28;20052;-76
2023/10/23 00:05:53;;;;;;;33.83;31.85;;;;;;;12.66;100.00;101040.81;5094215;28;20075;-77
2023/10/23 00:08:21;;;;;;;38.97;36.88;;;;;;;12.80;100.00;101042.41;5100343;28;20434;-75
2023/10/23 00:10:49;;;;;;;34.47;32.58;;;;;;;12.64;100.00;101041.03;5101153;28;20044;-75
2023/10/23 00:13:16;;;;;;;31.50;29.60;;;;;;;12.51;100.00;101033.91;5114047;28;20078;-77
2023/10/23 00:15:43;;;;;;;36.42;34.53;;;;;;;12.52;100.00;101032.03;5113299;28;20051;-78
2023/10/23 00:18:15;;;;;;;32.88;31.08;;;;;;;12.13;100.00;101034.66;5102618;28;20075;-78
2023/10/23 00:21:07;;;;;;;31.75;29.85;;;;;;;11.94;100.00;101034.66;5091631;28;20059;-78
2023/10/23 00:23:56;;;;;;;35.35;33.45;;;;;;;12.01;100.00;101038.13;5108778;28;20049;-77
2023/10/23 00:26:24;;;;;;;38.63;36.72;;;;;;;11.56;100.00;101040.56;5110715;28;20547;-77
2023/10/23 00:28:51;;;;;;;29.90;28.30;;;;;;;11.91;100.00;101042.03;5093883;28;20060;-78
2023/10/23 00:31:25;;;;;;;27.20;25.70;;;;;;;11.84;100.00;101051.84;5106293;28;20054;-79
2023/10/23 00:34:18;;;;;;;33.45;31.75;;;;;;;11.64;100.00;101051.84;5114564;28;20048;-77
2023/10/23 00:36:45;;;;;;;31.23;29.33;;;;;;;12.05;100.00;101045.50;5123028;27;20051;-78
2023/10/23 00:39:12;;;;;;;38.72;36.72;;;;;;;12.22;100.00;101037.88;5114194;28;20056;-77
2023/10/23 00:41:42;;;;;;;35.80;33.80;;;;;;;12.03;100.00;101036.09;5114221;28;20058;-76
2023/10/23 00:44:09;;;;;;;32.33;30.52;;;;;;;11.32;100.00;101042.03;5114424;28;20147;-79
2023/10/23 00:46:36;;;;;;;35.38;33.38;;;;;;;11.53;100.00;101051.63;5117188;27;20462;-78
2023/10/23 00:49:55;;;;;;;32.08;30.08;;;;;;;11.72;100.00;101052.69;5129471;27;20040;-78
2023/10/23 00:52:24;;;;;;;29.30;27.70;;;;;;;11.15;100.00;101050.34;5114280;28;20051;-77
2023/10/23 00:55:06;;;;;;;30.55;28.85;;;;;;;11.40;100.00;101044.47;5093542;28;20075;-77
2023/10/23 00:57:34;;;;;;;31.00;29.40;;;;;;;11.73;100.00;101052.47;5093576;28;20522;-76
2023/10/23 01:00:04;;;;;;;33.33;31.52;;;;;;;11.71;100.00;101046.53;5094412;28;20051;-78
2023/10/23 01:02:58;;;;;;;32.40;30.85;;;;;;;11.65;100.00;101050.84;5114284;28;20047;-77
2023/10/23 01:05:30;;;;;;;30.42;28.63;;;;;;;11.58;100.00;101062.47;5118681;27;20079;-78
2023/10/23 01:07:59;;;;;;;36.05;34.35;;;;;;;11.62;100.00;101058.41;5113416;27;20052;-76
2023/10/23 01:10:42;;;;;;;33.00;31.40;;;;;;;11.65;100.00;101052.69;5102673;28;20462;-77
2023/10/23 01:13:11;;;;;;;36.22;34.22;;;;;;;11.44;100.00;101056.34;5113753;28;20435;-77
2023/10/23 01:15:38;;;;;;;32.80;31.00;;;;;;;11.55;100.00;101060.22;5114163;28;20044;-77
2023/10/23 01:18:25;;;;;;;30.52;28.73;;;;;;;11.54;100.00;101067.41;5122685;27;20494;-78
2023/10/23 01:20:52;;;;;;;37.22;35.25;;;;;;;11.60;100.00;101063.91;5120079;27;20731;-77
2023/10/23 01:23:42;;;;;;;37.30;35.30;;;;;;;11.40;100.00;101063.88;5113450;28;20560;-78
2023/10/23 01:26:21;;;;;;;39.00;37.00;;;;;;;11.37;100.00;101058.97;5117944;27;20043;-76
2023/10/23 01:28:48;;;;;;;34.60;32.70;;;;;;;10.52;100.00;101068.31;5112654;28;20044;-78
2023/10/23 01:31:27;;;;;;;33.35;31.45;;;;;;;11.11;100.00;101058.94;5123134;27;20043;-76
2023/10/23 01:34:03;;;;;;;38.45;36.35;;;;;;;11.12;100.00;101052.59;5134127;27;20399;-77
2023/10/23 01:36:31;;;;;;;36.58;34.67;;;;;;;11.10;100.00;101054.63;5106176;27;20492;-77
2023/10/23 01:39:16;;;;;;;36.85;34.78;;;;;;;11.24;100.00;101053.66;5111437;28;20430;-77
2023/10/23 01:41:44;;;;;;;33.53;31.73;;;;;;;11.25;100.00;101055.28;5113108;28;20117;-77
2023/10/23 01:44:23;;;;;;;32.25;30.45;;;;;;;11.02;100.00;101052.19;5113234;28;20047;-79
2023/10/23 01:46:53;;;;;;;35.17;33.28;;;;;;;11.27;100.00;101053.25;5113754;28;20047;-76
2023/10/23 01:49:30;;;;;;;29.50;27.90;;;;;;;10.80;100.00;101056.78;5100122;27;20511;-78
2023/10/23 01:51:56;;;;;;;32.33;30.52;;;;;;;10.97;100.00;101056.25;5114024;27;20053;-76
2023/10/23 01:54:32;;;;;;;32.53;30.95;;;;;;;10.88;100.00;101053.97;5115410;27;20422;-78
2023/10/23 01:57:00;;;;;;;37.25;35.25;;;;;;;11.10;100.00;101062.63;5112864;28;20053;-77
2023/10/23 01:59:27;;;;;;;33.08;31.38;;;;;;;11.29;100.00;101064.50;5102651;27;20052;-77
2023/10/23 02:02:11;;;;;;;44.22;42.13;;;;;;;11.32;100.00;101065.94;5103440;28;20056;-77
2023/10/23 02:04:39;;;;;;;43.15;41.15;;;;;;;11.28;100.00;101073.50;5092647;28;20052;-77
2023/10/23 02:07:26;;;;;;;42.63;40.65;;;;;;;11.62;100.00;101075.19;5098748;28;20036;-77
2023/10/23 02:10:15;;;;;;;32.40;31.10;;;;;;;11.42;100.00;101075.16;5094772;28;20044;-77
2023/10/23 02:12:45;;;;;;;30.90;29.50;;;;;;;11.60;100.00;101071.09;5100713;28;20044;-77
2023/10/23 02:15:17;;;;;;;45.97;43.95;;;;;;;11.33;100.00;101071.06;5118615;27;20044;-78
2023/10/23 02:17:50;;;;;;;45.97;43.88;;;;;;;11.36;100.00;101080.47;5117298;27;20439;-78
2023/10/23 02:20:18;;;;;;;42.67;40.78;;;;;;;11.16;100.00;101077.75;5111763;27;20071;-76
2023/10/23 02:22:54;;;;;;;41.60;39.70;;;;;;;11.22;100.00;101076.94;5124406;27;20507;-77
2023/10/23 02:25:47;;;;;;;39.83;38.03;;;;;;;11.37;100.00;101074.94;5105474;28;20048;-76
2023/10/23 02:28:16;;;;;;;36.65;34.95;;;;;;;11.37;100.00;101077.59;5103786;27;20100;-76
2023/10/23 02:30:48;;;;;;;38.70;36.92;;;;;;;11.33;100.00;101086.19;5104119;27;20052;-76
2023/10/23 02:33:16;;;;;;;41.45;39.65;;;;;;;11.09;100.00;101085.72;5099572;28;20047;-76
2023/10/23 02:35:43;;;;;;;38.15;36.45;;;;;;;11.07;100.00;101090.41;5101954;28;20043;-75
2023/10/23 02:38:11;;;;;;;39.58;37.88;;;;;;;11.12;100.00;101097.78;5102949;28;20066;-77
2023/10/23 02:41:09;;;;;;;27.85;26.45;;;;;;;11.05;100.00;101089.00;5101086;28;20048;-77
2023/10/23 02:43:50;;;;;;;27.23;25.92;;;;;;;11.16;100.00;101088.38;5107008;28;20059;-77
2023/10/23 02:46:24;;;;;;;26.50;25.25;;;;;;;11.02;100.00;101084.06;5111572;28;20431;-77
2023/10/23 02:48:55;;;;;;;30.05;28.58;;;;;;;11.09;100.00;101084.91;5115803;27;20067;-79
2023/10/23 02:51:38;;;;;;;30.17;28.58;;;;;;;11.14;100.00;101077.16;5115527;27;20051;-77
2023/10/23 02:54:05;;;;;;;27.05;25.65;;;;;;;11.26;100.00;101082.72;5095917;28;20052;-76
2023/10/23 02:56:33;;;;;;;27.13;25.63;;;;;;;11.57;100.00;101082.13;5110116;28;20051;-76
2023/10/23 02:59:27;;;;;;;26.80;25.30;;;;;;;10.92;100.00;101085.28;5105980;28;20072;-77
2023/10/23 03:01:57;;;;;;;24.73;23.27;;;;;;;11.39;100.00;101088.03;5100878;28;20048;-77
2023/10/23 03:04:24;;;;;;;23.45;22.15;;;;;;;11.62;100.00;101080.50;5092611;28;20040;-77
2023/10/23 03:06:51;;;;;;;26.20;24.80;;;;;;;11.32;100.00;101072.09;5106226;28;20434;-79
2023/10/23 03:09:21;;;;;;;26.85;25.45;;;;;;;11.44;100.00;101075.78;5092601;28;20059;-77
2023/10/23 03:11:47;;;;;;;26.27;25.08;;;;;;;11.45;100.00;101064.13;5111264;28;20066;-77
2023/10/23 03:14:14;;;;;;;26.23;24.92;;;;;;;11.17;100.00;101072.25;5099715;28;20043;-76
2023/10/23 03:16:43;;;;;;;25.38;23.88;;;;;;;10.88;100.00;101075.22;5106514;28;20137;-76
2023/10/23 03:19:25;;;;;;;24.85;23.45;;;;;;;11.12;100.00;101073.88;5107553;28;20063;-76
2023/10/23 03:21:52;;;;;;;27.48;26.08;;;;;;;11.16;100.00;101067.13;5100637;28;20055;-78
2023/10/23 03:24:26;;;;;;;26.15;23.85;;;;;;;11.26;100.00;101075.53;5111769;28;20051;-77
2023/10/23 03:26:53;;;;;;;25.98;23.60;;;;;;;11.31;100.00;101086.38;5118611;28;20492;-77
2023/10/23 03:29:39;;;;;;;29.63;27.33;;;;;;;11.33;100.00;101089.66;5091831;28;20058;-78
2023/10/23 03:32:19;;;;;;;28.58;26.27;;;;;;;11.30;100.00;101082.09;5091290;28;20054;-77
2023/10/23 03:34:46;;;;;;;38.47;35.58;;;;;;;11.27;100.00;101085.16;5044207;28;20455;-79
2023/10/23 03:37:29;;;;;;;34.10;31.50;;;;;;;11.09;100.00;101092.88;5093937;28;20067;-78
2023/10/23 03:40:10;;;;;;;28.13;25.85;;;;;;;10.98;100.00;101081.81;5091830;28;20062;-77
2023/10/23 03:42:43;;;;;;;32.78;30.40;;;;;;;11.32;100.00;101090.69;5091402;28;20121;-77
2023/10/23 03:45:12;;;;;;;25.65;23.65;;;;;;;11.29;100.00;101091.09;5089794;28;20044;-77
2023/10/23 03:47:43;;;;;;;29.13;26.73;;;;;;;11.64;100.00;101094.41;5077673;28;20075;-77
2023/10/23 03:50:10;;;;;;;26.45;24.30;;;;;;;11.67;100.00;101094.00;5089714;28;20126;-77
2023/10/23 03:52:37;;;;;;;25.58;23.38;;;;;;;11.54;100.00;101093.19;5090838;28;20119;-77
2023/10/23 03:55:05;;;;;;;32.70;30.60;;;;;;;11.46;100.00;101091.53;5089944;28;20048;-76
2023/10/23 03:57:33;;;;;;;22.77;20.77;;;;;;;11.24;100.00;101088.22;5089197;28;20055;-77
2023/10/23 04:00:00;;;;;;;20.55;18.55;;;;;;;11.48;100.00;101080.69;5071711;28;20105;-79
2023/10/23 04:02:27;;;;;;;22.92;20.63;;;;;;;11.54;100.00;101093.19;5088721;28;20530;-77
2023/10/23 04:04:55;;;;;;;25.25;22.95;;;;;;;11.89;100.00;101092.00;5082898;28;20047;-77
2023/10/23 04:07:22;;;;;;;33.75;30.95;;;;;;;11.94;100.00;101088.72;5091215;28;20059;-76
2023/10/23 04:10:00;;;;;;;39.42;36.40;;;;;;;12.26;100.00;101092.38;5093917;28;20044;-75
2023/10/23 04:12:27;;;;;;;43.90;40.13;;;;;;;12.42;100.00;101090.28;5076925;28;20059;-76
2023/10/23 04:14:54;;;;;;;30.80;29.40;;;;;;;12.61;100.00;101090.22;5086764;28;20053;-76
2023/10/23 04:17:21;;;;;;;40.45;38.83;;;;;;;12.52;100.00;101093.31;5089959;28;20044;-78
2023/10/23 04:19:48;;;;;;;29.33;27.92;;;;;;;12.51;100.00;101099.69;5074005;28;20044;-78
2023/10/23 04:22:18;;;;;;;29.00;27.40;;;;;;;12.58;100.00;101097.81;5092506;28;20480;-79
2023/10/23 04:24:47;;;;;;;26.75;25.45;;;;;;;12.29;100.00;101099.13;5093722;28;20044;-77
2023/10/23 04:27:14;;;;;;;26.30;25.00;;;;;;;12.57;100.00;101096.19;5089200;28;20052;-76
2023/10/23 04:29:40;;;;;;;26.83;25.42;;;;;;;12.68;100.00;101090.22;5080011;28;20047;-76
2023/10/23 04:32:08;;;;;;;24.85;23.55;;;;;;;12.02;100.00;101109.81;5087199;28;20535;-75
2023/10/23 04:34:34;;;;;;;27.48;26.08;;;;;;;12.13;100.00;101111.00;5090772;28;20044;-76
2023/10/23 04:37:31;;;;;;;24.02;22.73;;;;;;;12.33;100.00;101106.50;5085840;28;20053;-77
2023/10/23 04:39:59;;;;;;;24.17;22.77;;;;;;;12.50;100.00;101106.06;5086093;28;20055;-76
2023/10/23 04:42:26;;;;;;;22.88;21.48;;;;;;;12.58;100.00;101106.63;5080773;28;20063;-75
2023/10/23 04:45:15;;;;;;;21.02;19.73;;;;;;;11.97;100.00;101108.78;5091633;28;20609;-78
2023/10/23 04:47:42;;;;;;;21.13;19.88;;;;;;;12.20;100.00;101121.69;5092866;28;20051;-76
2023/10/23 04:50:16;;;;;;;20.75;19.55;;;;;;;11.94;100.00;101125.97;5085149;28;20045;-78
2023/10/23 04:52:45;;;;;;;19.77;18.58;;;;;;;12.25;100.00;101121.88;5075788;28;20147;-76
2023/10/23 04:55:11;;;;;;;21.35;20.15;;;;;;;12.23;100.00;101127.41;5089191;28;20044;-76
2023/10/23 04:57:39;;;;;;;21.10;20.00;;;;;;;12.42;100.00;101132.91;5083401;28;20048;-77
2023/10/23 05:00:09;;;;;;;22.10;20.80;;;;;;;12.38;100.00;101136.00;5069908;28;20060;-76
2023/10/23 05:02:48;;;;;;;21.42;20.02;;;;;;;12.08;100.00;101137.47;5079719;28;20044;-76
2023/10/23 05:05:15;;;;;;;21.10;19.80;;;;;;;11.58;100.00;101135.13;5084904;28;20121;-76
2023/10/23 05:07:42;;;;;;;22.70;21.40;;;;;;;12.08;100.00;101150.78;5089564;28;20555;-77
2023/10/23 05:10:11;;;;;;;22.60;21.48;;;;;;;12.53;100.00;101148.28;5087330;28;20138;-77
2023/10/23 05:12:38;;;;;;;21.13;20.02;;;;;;;12.55;100.00;101143.53;5084643;28;20053;-77
2023/10/23 05:15:08;;;;;;;19.15;18.05;;;;;;;12.52;100.00;101149.28;5083302;28;20055;-77
2023/10/23 05:17:35;;;;;;;19.75;18.55;;;;;;;12.72;100.00;101144.72;5076547;28;20084;-76
2023/10/23 05:20:07;;;;;;;19.35;18.23;;;;;;;12.82;100.00;101150.44;5097619;28;20048;-76
2023/10/23 05:22:38;;;;;;;20.30;19.10;;;;;;;12.90;100.00;101152.06;5092160;28;20435;-75
2023/10/23 05:25:10;;;;;;;18.27;17.27;;;;;;;12.93;100.00;101156.97;5084556;28;20519;-75
2023/10/23 05:27:37;;;;;;;20.13;19.13;;;;;;;12.88;100.00;101170.09;5079484;28;20059;-76
2023/10/23 05:30:06;;;;;;;19.75;18.75;;;;;;;13.05;100.00;101165.13;5080112;28;20040;-76
2023/10/23 05:32:52;;;;;;;22.45;21.35;;;;;;;13.38;100.00;101173.00;5091407;28;20075;-77
2023/10/23 05:35:19;;;;;;;19.95;18.85;;;;;;;13.33;100.00;101180.81;5086402;28;20075;-76
2023/10/23 05:37:46;;;;;;;20.70;19.50;;;;;;;13.81;100.00;101175.00;5088304;28;20052;-76
2023/10/23 05:40:15;;;;;;;21.85;20.65;;;;;;;14.03;100.00;101172.78;5078496;28;20443;-78
2023/10/23 05:42:47;;;;;;;18.73;17.63;;;;;;;13.90;100.00;101176.38;5077526;28;20496;-77
2023/10/23 05:45:14;;;;;;;22.23;20.92;;;;;;;14.18;100.00;101175.13;5088804;28;20070;-77
2023/10/23 05:47:41;;;;;;;21.50;20.20;;;;;;;14.17;100.00;101178.84;5077368;28;20107;-77
2023/10/23 05:50:21;;;;;;;19.38;18.17;;;;;;;14.14;100.00;101180.09;5078086;28;20047;-77
2023/10/23 05:52:49;;;;;;;21.90;20.70;;;;;;;14.19;100.00;101179.44;5081466;28;20059;-75
2023/10/23 05:55:17;;;;;;;24.90;23.60;;;;;;;14.25;100.00;101178.59;5093527;28;20083;-77
2023/10/23 05:57:58;;;;;;;21.02;19.83;;;;;;;14.23;100.00;101191.34;5090848;28;20056;-76
2023/10/23 06:00:34;;;;;;;23.73;22.42;;;;;;;14.31;100.00;101185.72;5084098;28;20040;-77
2023/10/23 06:03:01;;;;;;;25.73;24.33;;;;;;;14.52;100.00;101186.38;5080567;28;20043;-76
2023/10/23 06:05:27;;;;;;;25.45;24.15;;;;;;;14.73;100.00;101190.47;5085275;28;20048;-76
2023/10/23 06:07:54;;;;;;;24.83;23.63;;;;;;;14.49;100.00;101189.44;5093625;28;20044;-76
2023/10/23 06:10:23;;;;;;;24.42;23.23;;;;;;;14.60;100.00;101196.78;5080417;28;20040;-76
2023/10/23 06:12:50;;;;;;;25.00;23.70;;;;;;;14.56;100.00;101196.41;5075324;28;20452;-76
2023/10/23 06:15:16;;;;;;;26.58;25.23;;;;;;;14.62;100.00;101186.69;5079386;28;20055;-78
2023/10/23 06:17:45;;;;;;;24.83;23.52;;;;;;;14.91;100.00;101187.00;5086742;28;20432;-76
2023/10/23 06:20:12;;;;;;;29.52;28.02;;;;;;;14.81;100.00;101196.34;5090394;28;20044;-78
2023/10/23 06:23:22;;;;;;;24.33;22.92;;;;;;;15.06;100.00;101195.47;5088152;28;20060;-77
2023/10/23 06:25:56;;;;;;;23.50;22.10;;;;;;;14.75;100.00;101201.78;5086468;28;20135;-76
2023/10/23 06:28:31;;;;;;;;;;;;;;;15.04;100.00;101195.69;5081948;28;20062;-76
2023/10/23 06:31:05;;;;;;;23.25;21.90;;;;;;;14.88;100.00;101207.78;5082306;28;19919;-77
2023/10/23 06:33:32;;;;;;;26.58;25.17;;;;;;;14.79;100.00;101219.81;5088733;28;20044;-77
2023/10/23 06:35:59;;;;;;;26.88;25.48;;;;;;;15.44;100.00;101215.81;5085452;28;20503;-77
2023/10/23 06:38:47;;;;;;;30.35;28.80;;;;;;;15.65;100.00;101204.59;5081928;28;20515;-77
2023/10/23 06:41:15;;;;;;;32.55;30.85;;;;;;;15.85;100.00;101204.31;5086380;28;20539;-76
2023/10/23 06:43:50;;;;;;;31.15;29.45;;;;;;;15.95;100.00;101209.13;5090720;28;20779;-77
2023/10/23 06:46:17;;;;;;;24.05;22.65;;;;;;;15.96;100.00;101205.41;5083848;28;20050;-78
2023/10/23 06:48:46;;;;;;;26.48;24.98;;;;;;;16.38;100.00;101216.06;5079519;28;20059;-76
2023/10/23 06:51:13;;;;;;;26.10;24.60;;;;;;;16.60;100.00;101205.59;5090604;28;20150;-79
2023/10/23 06:53:52;;;;;;;25.35;23.85;;;;;;;16.58;100.00;101207.66;5089003;28;20052;-77
2023/10/23 06:56:23;;;;;;;25.40;23.80;;;;;;;16.85;100.00;101210.72;5090413;28;20058;-76
2023/10/23 06:58:50;;;;;;;26.73;25.13;;;;;;;17.09;100.00;101206.13;5088112;28;20542;-77
2023/10/23 07:01:17;;;;;;;26.00;24.50;;;;;;;16.80;100.00;101208.75;5075683;28;20040;-76
2023/10/23 07:03:45;;;;;;;26.05;24.48;;;;;;;17.03;100.00;101213.25;5080938;28;20047;-78
2023/10/23 07:06:15;;;;;;;24.52;23.13;;;;;;;16.48;100.00;101209.06;5086912;28;20048;-76
2023/10/23 07:08:45;;;;;;;23.92;22.52;;;;;;;17.05;100.00;101213.84;5086533;28;20044;-75
2023/10/23 07:11:13;;;;;;;24.45;23.05;;;;;;;17.58;100.00;101212.75;5075331;28;20056;-79
2023/10/23 07:13:42;;;;;;;25.08;23.48;;;;;;;17.67;100.00;101209.66;5084554;28;20051;-76
2023/10/23 07:16:29;;;;;;;26.80;25.30;;;;;;;17.49;100.00;101216.03;5078840;28;20051;-78
2023/10/23 07:18:57;;;;;;;27.23;25.73;;;;;;;17.35;100.00;101221.69;5088274;28;20412;-76
2023/10/23 07:21:33;;;;;;;26.25;24.65;;;;;;;17.54;100.00;101208.88;5083310;28;20568;-77
2023/10/23 07:24:16;;;;;;;22.23;20.92;;;;;;;18.09;100.00;101207.44;5079177;28;20553;-76
2023/10/23 07:26:43;;;;;;;23.67;22.27;;;;;;;18.65;100.00;101211.00;5078196;28;20037;-75
2023/10/23 07:29:22;;;;;;;24.50;23.00;;;;;;;19.75;100.00;101204.81;5083789;28;20048;-76
2023/10/23 07:32:07;;;;;;;25.10;23.70;;;;;;;20.07;100.00;101202.94;5077238;28;20055;-75
2023/10/23 07:34:34;;;;;;;24.70;23.20;;;;;;;20.42;100.00;101206.97;5083788;28;20044;-77
2023/10/23 07:37:03;;;;;;;24.65;23.15;;;;;;;21.02;100.00;101208.41;5073583;28;20055;-78
2023/10/23 07:39:33;;;;;;;23.40;22.00;;;;;;;20.76;100.00;101212.06;5091192;28;20654;-77
2023/10/23 07:42:00;;;;;;;25.77;24.27;;;;;;;21.52;100.00;101202.66;5091920;28;20058;-77
2023/10/23 07:44:32;;;;;;;29.65;27.95;;;;;;;22.26;100.00;101199.47;5074110;28;20045;-77
2023/10/23 07:46:59;;;;;;;29.42;27.83;;;;;;;22.87;100.00;101198.50;5088653;28;20645;-76
2023/10/23 07:49:26;;;;;;;30.02;28.40;;;;;;;23.03;100.00;101191.97;5084623;28;20048;-77
2023/10/23 07:51:54;;;;;;;27.83;26.23;;;;;;;23.39;100.00;101185.53;5079567;28;20105;-76
2023/10/23 07:54:23;;;;;;;27.27;25.67;;;;;;;23.88;100.00;101184.72;5079037;28;20435;-79
2023/10/23 07:56:56;;;;;;;28.55;26.95;;;;;;;24.06;100.00;101185.91;5092900;28;20044;-75
2023/10/23 07:59:26;;;;;;;30.80;29.10;;;;;;;24.55;100.00;101193.06;5091574;28;20055;-75
2023/10/23 08:02:00;;;;;;;26.00;24.40;;;;;;;24.83;100.00;101194.09;5071069;28;20051;-76
2023/10/23 08:04:27;;;;;;;28.20;26.50;;;;;;;24.20;100.00;101189.56;5073388;28;20044;-74
2023/10/23 08:06:54;;;;;;;26.00;24.30;;;;;;;23.07;100.00;101192.22;5079023;28;20133;-75
2023/10/23 08:09:43;;;;;;;269.88;49.50;;;;;;;23.07;100.00;101186.81;5086680;28;20528;-76
2023/10/23 08:12:08;;;;;;;24.83;23.23;;;;;;;23.40;100.00;101190.69;5088470;28;20052;-76
2023/10/23 08:14:50;;;;;;;26.33;24.63;;;;;;;24.50;100.00;101182.25;5085848;28;20040;-75
2023/10/23 08:17:31;;;;;;;24.17;22.67;;;;;;;25.33;100.00;101189.13;5090227;28;20047;-75
2023/10/23 08:19:58;;;;;;;22.90;21.50;;;;;;;25.99;100.00;101179.13;5089268;28;20048;-74
2023/10/23 08:22:25;;;;;;;24.45;22.85;;;;;;;26.31;100.00;101181.03;5083993;28;20056;-75
2023/10/23 08:24:52;;;;;;;25.92;24.33;;;;;;;26.75;100.00;101185.13;5081424;28;20102;-75
2023/10/23 08:27:19;;;;;;;29.42;27.33;;;;;;;23.74;100.00;101190.75;5091372;28;20047;-75
2023/10/23 08:29:46;;;;;;;26.90;25.20;;;;;;;23.64;100.00;101193.53;5075447;28;20059;-75
2023/10/23 08:32:22;;;;;;;27.30;25.60;;;;;;;24.11;100.00;101197.50;5086244;28;20048;-75
2023/10/23 08:34:53;;;;;;;26.17;24.63;;;;;;;24.22;100.00;101185.47;5083979;28;20432;-75
2023/10/23 08:37:20;;;;;;;25.73;24.13;;;;;;;23.25;100.00;101188.09;5072535;28;20056;-75
2023/10/23 08:39:47;;;;;;;25.23;23.63;;;;;;;23.96;100.00;101189.50;5072821;28;20534;-75
2023/10/23 08:42:14;;;;;;;26.10;24.50;;;;;;;24.20;100.00;101181.44;5087050;28;20039;-75
2023/10/23 08:44:43;;;;;;;25.55;23.95;;;;;;;25.78;100.00;101184.06;5082676;28;20048;-74
2023/10/23 08:47:10;;;;;;;25.05;23.45;;;;;;;24.62;100.00;101183.47;5074721;28;20049;-75
2023/10/23 08:49:37;;;;;;;25.65;24.05;;;;;;;24.86;100.00;101185.34;5079073;28;20056;-74
2023/10/23 08:52:11;;;;;;;23.73;22.23;;;;;;;24.15;100.00;101185.00;5075531;28;20447;-74
2023/10/23 08:54:40;;;;;;;24.15;22.65;;;;;;;24.85;100.00;101183.75;5076165;28;20511;-74
2023/10/23 08:57:08;;;;;;;23.90;22.40;;;;;;;23.81;100.00;101182.31;5086688;28;20477;-74
2023/10/23 08:59:48;;;;;;;23.45;21.95;;;;;;;24.10;100.00;101176.09;5083908;28;20059;-74
2023/10/23 09:02:16;;;;;;;22.95;21.45;;;;;;;26.71;100.00;101173.19;5070900;28;20135;-74
2023/10/23 09:04:43;;;;;;;24.27;22.67;;;;;;;28.00;89.20;101169.22;5071396;28;20059;-74
2023/10/23 09:07:11;;;;;;;24.58;22.98;;;;;;;27.86;92.13;101163.81;5079144;28;20055;-74
2023/10/23 09:09:41;;;;;;;25.60;24.00;;;;;;;28.19;82.52;101167.06;5086365;28;20048;-74
2023/10/23 09:12:08;;;;;;;26.90;25.30;;;;;;;26.73;88.67;101171.00;5071489;28;20052;-73
2023/10/23 09:14:36;;;;;;;24.60;23.00;;;;;;;25.77;100.00;101175.09;5071711;28;20056;-74
2023/10/23 09:17:06;;;;;;;26.92;25.23;;;;;;;25.22;100.00;101172.16;5080568;28;20098;-75
2023/10/23 09:19:37;;;;;;;23.85;22.25;;;;;;;25.01;100.00;101168.88;5083354;28;20058;-76
2023/10/23 09:22:06;;;;;;;23.20;21.80;;;;;;;25.70;100.00;101171.97;5091072;28;20135;-76
2023/10/23 09:24:37;;;;;;;22.33;20.83;;;;;;;26.49;99.84;101171.19;5075111;28;20090;-76
2023/10/23 09:27:04;;;;;;;22.17;20.67;;;;;;;25.41;100.00;101163.97;5089482;28;20047;-77
2023/10/23 09:29:31;;;;;;;23.88;22.33;;;;;;;25.94;100.00;101157.47;5087995;28;20048;-76
2023/10/23 09:32:15;;;;;;;23.60;22.00;;;;;;;24.70;97.48;101148.63;5089262;28;20059;-76
2023/10/23 09:34:44;;;;;;;23.15;21.55;;;;;;;25.87;94.75;101152.44;5087705;28;20044;-75
2023/10/23 09:37:11;;;;;;;23.90;22.40;;;;;;;27.36;89.66;101151.09;5087413;28;20431;-75
2023/10/23 09:39:40;;;;;;;23.60;22.00;;;;;;;26.82;84.56;101146.56;5088627;28;20127;-75
2023/10/23 09:42:09;;;;;;;25.00;23.48;;;;;;;25.85;92.26;101142.94;5080067;28;20045;-76
2023/10/23 09:44:39;;;;;;;24.77;23.08;;;;;;;26.66;95.93;101146.09;5087629;28;20055;-76
2023/10/23 09:47:08;;;;;;;24.20;22.60;;;;;;;25.99;89.79;101149.19;5095273;28;20044;-75
2023/10/23 09:49:37;;;;;;;25.55;23.95;;;;;;;25.80;87.20;101144.59;5087456;28;20067;-74
2023/10/23 09:52:09;;;;;;;24.88;23.27;;;;;;;25.47;98.04;101148.41;5081648;28;20044;-73
2023/10/23 09:54:38;;;;;;;26.50;24.88;;;;;;;26.47;95.56;101141.50;5081616;28;20447;-74
2023/10/23 09:57:08;;;;;;;25.73;24.13;;;;;;;26.54;97.24;101143.03;5077940;28;20056;-76
2023/10/23 09:59:42;;;;;;;27.33;25.55;;;;;;;26.59;94.77;101145.66;5077033;28;20178;-76
2023/10/23 10:02:11;;;;;;;27.35;25.65;;;;;;;26.52;96.64;101137.09;5080371;28;20060;-76
2023/10/23 10:04:47;;;;;;;26.05;24.45;;;;;;;26.16;96.46;101146.72;5084519;28;20052;-76
2023/10/23 10:07:36;;;;;;;33.85;31.95;;;;;;;25.38;100.00;101150.97;5081325;28;20098;-76
2023/10/23 10:10:05;;;;;;;32.08;30.27;;;;;;;25.54;100.00;101141.50;5070607;28;20052;-77
2023/10/23 10:12:35;;;;;;;28.30;26.60;;;;;;;25.86;100.00;101144.53;5082376;28;20102;-76
2023/10/23 10:15:03;;;;;;;29.05;27.35;;;;;;;26.32;96.79;101133.63;5087766;28;20048;-76
2023/10/23 10:17:31;;;;;;;25.08;23.58;;;;;;;25.92;100.00;101127.81;5089495;28;20063;-75
2023/10/23 10:20:02;;;;;;;27.33;25.83;;;;;;;26.36;100.00;101126.47;5077022;28;20409;-76
2023/10/23 10:22:31;;;;;;;27.25;25.75;;;;;;;26.23;96.60;101116.38;5077768;28;20106;-77
2023/10/23 10:25:02;;;;;;;29.63;28.02;;;;;;;26.72;97.67;101126.59;5070458;28;20143;-77
2023/10/23 10:27:31;;;;;;;30.20;28.40;;;;;;;27.01;96.71;101113.72;5072379;28;20053;-75
2023/10/23 10:30:04;;;;;;;29.75;27.95;;;;;;;25.73;87.96;101119.69;5080860;28;20520;-75
2023/10/23 10:32:32;;;;;;;25.80;24.20;;;;;;;26.70;90.67;101123.34;5076647;28;20056;-77
2023/10/23 10:35:28;;;;;;;26.85;25.25;;;;;;;26.16;84.44;101122.22;5085054;28;20428;-76
2023/10/23 10:38:00;;;;;;;27.05;25.35;;;;;;;27.17;89.53;101117.72;5082918;28;20517;-77
2023/10/23 10:40:27;;;;;;;24.55;23.05;;;;;;;26.56;79.28;101108.94;5074583;28;20054;-77
2023/10/23 10:42:57;;;;;;;25.42;23.83;;;;;;;27.42;89.88;101110.88;5082609;28;20052;-76
2023/10/23 10:45:27;;;;;;;26.73;25.13;;;;;;;28.12;77.10;101105.84;5079037;28;20048;-75
2023/10/23 10:47:54;;;;;;;25.08;23.58;;;;;;;27.37;81.63;101106.34;5095039;28;20043;-75
2023/10/23 10:50:35;;;;;;;24.73;23.33;;;;;;;26.69;89.94;101104.63;5102077;28;20056;-76
2023/10/23 10:53:04;;;;;;;24.40;22.90;;;;;;;27.43;86.39;101106.22;5083320;28;20051;-77
2023/10/23 10:55:37;;;;;;;24.75;23.17;;;;;;;27.58;83.37;101097.66;5076180;28;20053;-75
2023/10/23 10:58:19;;;;;;;25.73;24.20;;;;;;;27.95;79.72;101093.72;5090009;28;20503;-74
2023/10/23 11:00:47;;;;;;;23.65;22.15;;;;;;;29.02;68.05;101092.59;5079158;28;20063;-76
2023/10/23 11:03:27;;;;;;;22.17;20.67;;;;;;;27.44;73.84;101105.91;5087508;28;20050;-75
2023/10/23 11:05:55;;;;;;;24.30;22.90;;;;;;;28.69;70.53;101087.56;5073492;28;20047;-75
2023/10/23 11:08:28;;;;;;;23.33;21.83;;;;;;;27.84;78.24;101089.66;5079765;28;20055;-75
2023/10/23 11:10:56;;;;;;;23.70;22.20;;;;;;;27.37;82.08;101094.63;5090927;28;20075;-74
2023/10/23 11:13:34;;;;;;;25.95;24.35;;;;;;;28.33;74.71;101082.31;5086710;28;20048;-74
2023/10/23 11:16:09;;;;;;;24.67;23.27;;;;;;;27.70;77.87;101086.97;5072206;28;20748;-75
2023/10/23 11:18:36;;;;;;;24.35;22.85;;;;;;;27.72;77.83;101084.75;5084310;28;20064;-74
2023/10/23 11:21:03;;;;;;;25.35;23.75;;;;;;;26.33;76.36;101096.34;5070579;28;20048;-74
2023/10/23 11:23:32;;;;;;;26.63;24.95;;;;;;;25.93;90.07;101085.94;5068623;28;20516;-74